createdAt,value
2018-05-11T00:01:22.591Z,78.20
2018-05-11T00:03:50.821Z,79.40
2018-05-11T00:06:19.056Z,79.70
2018-05-11T00:08:47.284Z,78.50
2018-05-11T00:11:16.332Z,79.50
2018-05-11T00:13:44.608Z,79.50
2018-05-11T00:16:12.839Z,80.70
2018-05-11T00:18:41.087Z,79.30
2018-05-11T00:21:09.400Z,79.50
2018-05-11T00:23:38.425Z,79.80
2018-05-11T00:26:07.434Z,80.60
2018-05-11T00:28:35.691Z,80.50
2018-05-11T00:31:03.927Z,80.10
2018-05-11T00:33:32.287Z,80.00
2018-05-11T00:36:00.603Z,80.50
2018-05-11T00:38:28.823Z,80.10
2018-05-11T00:40:57.843Z,79.90
2018-05-11T00:43:26.961Z,79.90
2018-05-11T00:45:55.233Z,80.10
2018-05-11T00:48:23.500Z,80.50
2018-05-11T00:50:52.584Z,81.40
2018-05-11T00:53:21.674Z,81.80
2018-05-11T00:55:50.726Z,82.70
2018-05-11T00:58:18.988Z,81.90
2018-05-11T01:00:47.376Z,82.80
2018-05-11T01:03:16.363Z,82.20
2018-05-11T01:05:45.208Z,82.30
2018-05-11T01:08:13.460Z,82.40
2018-05-11T01:10:42.459Z,82.40
2018-05-11T01:13:10.724Z,82.00
2018-05-11T01:15:39.036Z,82.60
2018-05-11T01:18:07.347Z,82.50
2018-05-11T01:20:35.602Z,82.50
2018-05-11T01:23:03.860Z,83.10
2018-05-11T01:25:32.193Z,83.00
2018-05-11T01:28:00.451Z,83.20
2018-05-11T01:30:28.686Z,83.20
2018-05-11T01:32:57.704Z,83.50
2018-05-11T01:35:26.020Z,83.40
2018-05-11T01:37:54.296Z,83.30
2018-05-11T01:40:22.562Z,82.90
2018-05-11T01:42:52.516Z,82.60
2018-05-11T01:45:20.812Z,82.70
2018-05-11T01:47:49.094Z,82.30
2018-05-11T01:50:17.372Z,82.00
2018-05-11T01:52:46.376Z,82.50
2018-05-11T01:55:15.387Z,82.50
2018-05-11T01:57:44.388Z,82.50
2018-05-11T02:00:13.101Z,82.50
2018-05-11T02:02:41.355Z,82.60
2018-05-11T02:05:10.355Z,83.20
2018-05-11T02:07:38.726Z,83.20
2018-05-11T02:10:07.738Z,83.60
2018-05-11T02:12:37.105Z,83.80
2018-05-11T02:15:05.439Z,83.80
2018-05-11T02:17:33.671Z,83.60
2018-05-11T02:20:01.940Z,84.00
2018-05-11T02:22:30.791Z,84.30
2018-05-11T02:25:00.528Z,85.30
2018-05-11T02:27:29.556Z,85.20
2018-05-11T02:29:57.816Z,85.70
2018-05-11T02:32:26.075Z,85.90
2018-05-11T02:34:54.618Z,87.00
2018-05-11T02:37:22.842Z,86.10
2018-05-11T02:39:51.103Z,87.30
2018-05-11T02:42:19.575Z,86.70
2018-05-11T02:44:47.853Z,86.60
2018-05-11T02:47:16.092Z,86.80
2018-05-11T02:49:44.347Z,87.00
2018-05-11T02:52:12.617Z,87.00
2018-05-11T02:54:41.624Z,86.80
2018-05-11T02:57:10.002Z,86.80
2018-05-11T02:59:39.020Z,87.00
2018-05-11T03:02:07.248Z,87.00
2018-05-11T03:04:35.522Z,87.00
2018-05-11T03:07:03.771Z,87.20
2018-05-11T03:09:31.988Z,87.20
2018-05-11T03:12:00.223Z,87.00
2018-05-11T03:14:28.465Z,87.00
2018-05-11T03:16:57.469Z,87.10
2018-05-11T03:19:26.488Z,87.30
2018-05-11T03:21:54.709Z,87.50
2018-05-11T03:24:22.975Z,87.60
2018-05-11T03:26:56.302Z,87.70
2018-05-11T03:29:24.544Z,87.50
2018-05-11T03:31:52.850Z,87.50
2018-05-11T03:34:21.096Z,87.80
2018-05-11T03:36:49.343Z,87.20
2018-05-11T03:39:17.657Z,87.50
2018-05-11T03:41:47.325Z,88.10
2018-05-11T03:44:15.575Z,87.70
2018-05-11T03:46:43.801Z,87.50
2018-05-11T03:49:12.882Z,87.50
2018-05-11T03:51:41.124Z,87.40
2018-05-11T03:54:09.358Z,87.40
2018-05-11T03:56:38.232Z,87.50
2018-05-11T03:59:06.517Z,88.50
2018-05-11T04:01:46.571Z,88.10
2018-05-11T04:04:26.516Z,87.30
2018-05-11T04:07:06.487Z,87.70
2018-05-11T04:09:35.584Z,87.80
2018-05-11T04:12:04.589Z,89.00
2018-05-11T04:14:33.638Z,86.90
2018-05-11T04:17:01.885Z,86.80
2018-05-11T04:19:30.140Z,86.40
2018-05-11T04:21:59.180Z,86.70
2018-05-11T04:24:27.425Z,85.90
2018-05-11T04:26:56.460Z,86.50
2018-05-11T04:29:24.731Z,86.30
2018-05-11T04:31:52.972Z,86.60
2018-05-11T04:34:21.225Z,85.90
2018-05-11T04:36:50.197Z,86.20
2018-05-11T04:39:18.444Z,83.50
2018-05-11T04:41:47.463Z,82.30
2018-05-11T04:44:16.192Z,82.20
2018-05-11T04:46:44.445Z,80.30
2018-05-11T04:49:12.667Z,80.30
2018-05-11T04:51:40.925Z,82.10
2018-05-11T04:54:09.199Z,82.20
2018-05-11T04:56:37.918Z,81.10
2018-05-11T04:59:06.165Z,79.40
2018-05-11T05:01:34.392Z,78.30
2018-05-11T05:04:02.681Z,78.80
2018-05-11T05:06:30.961Z,80.30
2018-05-11T05:08:59.392Z,81.90
2018-05-11T05:11:27.667Z,82.20
2018-05-11T05:13:55.920Z,82.40
2018-05-11T05:16:24.172Z,81.60
2018-05-11T05:18:52.536Z,81.70
2018-05-11T05:21:21.551Z,81.50
2018-05-11T05:23:50.377Z,81.70
2018-05-11T05:26:18.662Z,80.70
2018-05-11T05:28:47.655Z,80.70
2018-05-11T05:31:16.679Z,79.10
2018-05-11T05:33:45.705Z,78.30
2018-05-11T05:36:14.692Z,78.30
2018-05-11T05:38:42.924Z,76.90
2018-05-11T05:41:11.188Z,76.50
2018-05-11T05:43:39.432Z,75.70
2018-05-11T05:46:07.681Z,75.50
2018-05-11T05:48:36.688Z,74.20
2018-05-11T05:51:05.705Z,74.00
2018-05-11T05:53:33.935Z,74.00
2018-05-11T05:56:03.163Z,72.90
2018-05-11T05:58:32.175Z,72.60
2018-05-11T06:01:01.760Z,72.60
2018-05-11T06:03:30.086Z,72.60
2018-05-11T06:05:58.352Z,72.70
2018-05-11T06:08:26.607Z,71.80
2018-05-11T06:10:54.960Z,72.30
2018-05-11T06:13:23.120Z,73.30
2018-05-11T06:15:51.377Z,73.40
2018-05-11T06:18:19.645Z,71.90
2018-05-11T06:20:48.689Z,70.70
2018-05-11T06:23:16.960Z,70.70
2018-05-11T06:25:45.232Z,70.00
2018-05-11T06:28:14.276Z,69.60
2018-05-11T06:30:42.520Z,69.70
2018-05-11T06:33:16.335Z,68.90
2018-05-11T06:35:44.563Z,69.70
2018-05-11T06:38:13.598Z,69.10
2018-05-11T06:40:41.898Z,68.80
2018-05-11T06:43:10.164Z,67.90
2018-05-11T06:45:38.403Z,66.50
2018-05-11T06:48:07.429Z,67.50
2018-05-11T06:50:35.684Z,67.50
2018-05-11T06:53:04.715Z,69.00
2018-05-11T06:55:32.987Z,68.80
2018-05-11T06:58:02.010Z,68.70
2018-05-11T07:00:30.265Z,68.70
2018-05-11T07:02:58.530Z,69.20
2018-05-11T07:05:27.652Z,67.80
2018-05-11T07:07:55.994Z,67.80
2018-05-11T07:10:25.502Z,68.20
2018-05-11T07:12:53.779Z,68.10
2018-05-11T07:15:22.513Z,67.80
2018-05-11T07:17:51.060Z,68.50
2018-05-11T07:20:19.326Z,67.80
2018-05-11T07:22:47.553Z,66.70
2018-05-11T07:25:16.573Z,64.80
2018-05-11T07:27:45.360Z,64.80
2018-05-11T07:30:13.629Z,63.60
2018-05-11T07:32:43.371Z,65.10
2018-05-11T07:35:12.302Z,65.10
2018-05-11T07:37:40.555Z,65.50
2018-05-11T07:40:08.830Z,65.70
2018-05-11T07:42:37.091Z,66.00
2018-05-11T07:45:06.237Z,64.40
2018-05-11T07:47:35.377Z,63.10
2018-05-11T07:50:04.406Z,61.40
2018-05-11T07:52:32.681Z,61.40
2018-05-11T07:55:01.036Z,62.50
2018-05-11T07:57:30.197Z,62.60
2018-05-11T07:59:58.427Z,64.20
2018-05-11T08:02:27.476Z,64.20
2018-05-11T08:04:55.727Z,64.20
2018-05-11T08:13:19.032Z,61.70
2018-05-11T08:15:47.260Z,61.60
2018-05-11T08:18:17.011Z,60.60
2018-05-11T08:20:45.283Z,60.50
2018-05-11T08:23:14.165Z,59.90
2018-05-11T08:25:43.204Z,59.60
2018-05-11T08:28:11.537Z,59.60
2018-05-11T08:30:40.575Z,58.20
2018-05-11T08:33:09.571Z,58.20
2018-05-11T08:35:37.817Z,55.70
2018-05-11T08:38:07.324Z,51.30
2018-05-11T08:40:35.582Z,51.20
2018-05-11T08:43:03.820Z,49.90
2018-05-11T08:45:32.070Z,50.90
2018-05-11T08:48:01.106Z,49.50
2018-05-11T08:50:36.396Z,49.50
2018-05-11T08:53:04.661Z,50.00
2018-05-11T08:55:32.958Z,50.60
2018-05-11T08:58:01.237Z,51.10
2018-05-11T09:00:29.507Z,50.00
2018-05-11T09:02:58.671Z,47.90
2018-05-11T09:05:26.861Z,47.90
2018-05-11T09:07:55.113Z,49.40
2018-05-11T09:10:23.392Z,46.70
2018-05-11T09:12:52.416Z,45.60
2018-05-11T09:15:21.447Z,45.30
2018-05-11T09:17:49.700Z,45.30
2018-05-11T09:20:17.977Z,42.70
2018-05-11T09:22:46.276Z,43.00
2018-05-11T09:25:14.583Z,41.90
2018-05-11T09:27:42.872Z,41.70
2018-05-11T09:30:11.224Z,40.20
2018-05-11T09:32:39.543Z,40.30
2018-05-11T09:35:07.773Z,40.10
2018-05-11T09:37:36.223Z,39.80
2018-05-11T09:40:05.303Z,38.50
2018-05-11T09:42:33.549Z,38.50
2018-05-11T09:45:01.805Z,39.00
2018-05-11T09:47:30.678Z,36.60
2018-05-11T09:50:00.269Z,36.30
2018-05-11T09:52:28.505Z,36.20
2018-05-11T09:54:56.831Z,37.00
2018-05-11T09:57:25.773Z,38.80
2018-05-11T09:59:54.102Z,38.80
2018-05-11T10:02:22.418Z,40.10
2018-05-11T10:04:51.451Z,37.00
2018-05-11T10:07:19.978Z,37.00
2018-05-11T10:09:48.207Z,36.00
2018-05-11T10:12:16.595Z,36.80
2018-05-11T10:14:44.877Z,37.80
2018-05-11T10:17:13.118Z,35.30
2018-05-11T10:19:42.165Z,33.20
2018-05-11T10:22:10.416Z,33.20
2018-05-11T10:24:39.160Z,33.10
2018-05-11T10:27:07.388Z,33.20
2018-05-11T10:29:36.609Z,33.00
2018-05-11T10:32:04.788Z,33.50
2018-05-11T10:34:33.123Z,33.40
2018-05-11T10:37:02.931Z,33.80
2018-05-11T10:39:31.172Z,33.00
2018-05-11T10:41:59.481Z,31.30
2018-05-11T10:44:28.511Z,31.70
2018-05-11T10:46:56.747Z,31.80
2018-05-11T10:49:25.017Z,31.10
2018-05-11T10:51:53.255Z,30.60
2018-05-11T10:54:22.366Z,33.10
2018-05-11T10:56:51.353Z,35.00
2018-05-11T10:59:20.462Z,34.80
2018-05-11T11:01:49.476Z,34.90
2018-05-11T11:04:17.730Z,34.90
2018-05-11T11:06:46.742Z,33.30
2018-05-11T11:09:15.765Z,32.70
2018-05-11T11:11:44.100Z,32.70
2018-05-11T11:14:12.809Z,32.30
2018-05-11T11:16:41.838Z,30.50
2018-05-11T11:19:10.985Z,30.70
2018-05-11T11:21:39.955Z,30.60
2018-05-11T11:24:08.203Z,29.80
2018-05-11T11:26:36.432Z,32.10
2018-05-11T11:29:04.676Z,32.20
2018-05-11T11:31:32.943Z,30.50
2018-05-11T11:34:01.232Z,32.90
2018-05-11T11:36:29.498Z,31.70
2018-05-11T11:38:58.565Z,30.00
2018-05-11T11:41:27.570Z,30.00
2018-05-11T11:43:55.800Z,30.00
2018-05-11T11:46:24.053Z,29.30
2018-05-11T11:48:53.065Z,29.50
2018-05-11T11:51:21.421Z,29.50
2018-05-11T11:53:49.647Z,29.30
2018-05-11T11:56:17.968Z,29.70
2018-05-11T11:58:46.173Z,29.20
2018-05-11T12:01:15.955Z,28.60
2018-05-11T12:03:44.927Z,28.60
2018-05-11T12:06:13.188Z,28.60
2018-05-11T12:08:41.424Z,28.60
2018-05-11T12:11:09.732Z,28.40
2018-05-11T12:13:38.721Z,28.80
2018-05-11T12:16:06.992Z,28.70
2018-05-11T12:18:35.237Z,28.60
2018-05-11T12:21:03.512Z,27.70
2018-05-11T12:23:31.755Z,28.10
2018-05-11T12:26:00.799Z,29.30
2018-05-11T12:28:29.076Z,29.20
2018-05-11T12:30:57.462Z,29.00
2018-05-11T12:33:25.751Z,29.00
2018-05-11T12:35:53.985Z,31.00
2018-05-11T12:38:23.041Z,30.80
2018-05-11T12:40:51.279Z,30.80
2018-05-11T12:43:19.518Z,30.30
2018-05-11T12:45:47.912Z,29.80
2018-05-11T12:48:16.200Z,29.20
2018-05-11T12:50:44.457Z,29.90
2018-05-11T12:53:12.705Z,30.60
2018-05-11T12:55:40.940Z,32.10
2018-05-11T12:58:09.183Z,33.50
2018-05-11T13:00:37.433Z,34.00
2018-05-11T13:03:05.718Z,35.20
2018-05-11T13:05:34.698Z,33.40
2018-05-11T13:08:04.499Z,33.90
2018-05-11T13:10:32.756Z,33.90
2018-05-11T13:13:01.134Z,34.80
2018-05-11T13:15:29.271Z,34.70
2018-05-11T13:17:57.548Z,36.10
2018-05-11T13:20:26.568Z,35.00
2018-05-11T13:22:54.844Z,35.00
2018-05-11T13:25:23.086Z,35.40
2018-05-11T13:27:51.403Z,35.80
2018-05-11T13:30:20.441Z,35.80
2018-05-11T13:32:50.001Z,36.10
2018-05-11T13:35:18.331Z,36.10
2018-05-11T13:37:46.592Z,35.40
2018-05-11T13:40:14.831Z,35.70
2018-05-11T13:42:43.864Z,37.00
2018-05-11T13:45:12.108Z,37.00
2018-05-11T13:47:41.127Z,35.50
2018-05-11T13:50:09.382Z,35.50
2018-05-11T13:52:38.509Z,36.10
2018-05-11T13:55:06.876Z,36.00
2018-05-11T13:57:36.500Z,34.10
2018-05-11T14:00:04.761Z,34.10
2018-05-11T14:02:33.800Z,32.40
2018-05-11T14:05:03.052Z,32.40
2018-05-11T14:07:31.319Z,33.30
2018-05-11T14:09:59.546Z,34.40
2018-05-11T14:12:28.237Z,35.10
2018-05-11T14:14:56.549Z,35.90
2018-05-11T14:17:24.989Z,37.40
2018-05-11T14:19:54.639Z,39.50
2018-05-11T14:22:23.011Z,39.40
2018-05-11T14:24:51.257Z,40.70
2018-05-11T14:27:19.497Z,39.90
2018-05-11T14:29:48.229Z,40.80
2018-05-11T14:32:16.477Z,41.90
2018-05-11T14:34:44.706Z,41.50
2018-05-11T14:37:13.723Z,39.40
2018-05-11T14:39:41.996Z,39.30
2018-05-11T14:42:11.110Z,38.20
2018-05-11T14:44:39.328Z,37.80
2018-05-11T14:47:08.884Z,36.70
2018-05-11T14:49:37.273Z,38.10
2018-05-11T14:52:06.303Z,37.40
2018-05-11T14:54:34.560Z,37.70
2018-05-11T14:57:02.805Z,36.70
2018-05-11T14:59:31.828Z,36.70
2018-05-11T15:02:00.085Z,37.20
2018-05-11T15:04:28.829Z,37.70
2018-05-11T15:06:57.058Z,37.40
2018-05-11T15:09:25.306Z,38.40
2018-05-11T15:11:53.817Z,38.20
2018-05-11T15:14:22.069Z,39.40
2018-05-11T15:16:50.330Z,37.90
2018-05-11T15:19:18.577Z,37.30
2018-05-11T15:21:47.602Z,36.90
2018-05-11T15:24:16.593Z,37.50
2018-05-11T15:26:44.855Z,37.40
2018-05-11T15:29:13.937Z,37.60
2018-05-11T15:31:42.134Z,37.60
2018-05-11T15:34:10.405Z,38.00
2018-05-11T15:36:38.628Z,38.20
2018-05-11T15:39:06.873Z,38.30
2018-05-11T15:41:35.873Z,38.60
2018-05-11T15:44:04.128Z,38.60
2018-05-11T15:46:32.397Z,37.50
2018-05-11T15:49:00.648Z,37.60
2018-05-11T15:51:28.872Z,37.80
2018-05-11T15:53:57.187Z,38.00
2018-05-11T15:56:26.183Z,38.50
2018-05-11T15:58:55.292Z,38.40
2018-05-11T16:01:23.541Z,38.40
2018-05-11T16:03:51.827Z,39.20
2018-05-11T16:06:20.116Z,40.00
2018-05-11T16:08:48.549Z,41.40
2018-05-11T16:11:16.795Z,43.00
2018-05-11T16:13:45.815Z,43.30
2018-05-11T16:16:14.102Z,43.30
2018-05-11T16:18:42.357Z,43.80
2018-05-11T16:21:11.342Z,43.70
2018-05-11T16:23:39.621Z,43.70
2018-05-11T16:26:07.845Z,43.30
2018-05-11T16:28:36.706Z,44.30
2018-05-11T16:31:05.710Z,45.10
2018-05-11T16:33:34.781Z,44.90
2018-05-11T16:36:03.008Z,44.90
2018-05-11T16:38:31.257Z,45.20
2018-05-11T16:41:00.291Z,46.20
2018-05-11T16:43:28.517Z,45.60
2018-05-11T16:45:56.755Z,45.80
2018-05-11T16:48:25.050Z,46.30
2018-05-11T16:50:53.293Z,46.20
2018-05-11T16:53:22.583Z,45.40
2018-05-11T16:55:51.729Z,45.30
2018-05-11T16:58:20.264Z,45.60
2018-05-11T17:00:48.518Z,46.30
2018-05-11T17:03:17.188Z,46.50
2018-05-11T17:05:45.466Z,46.40
2018-05-11T17:08:13.723Z,47.20
2018-05-11T17:10:43.621Z,48.60
2018-05-11T17:13:11.944Z,48.50
2018-05-11T17:15:40.189Z,48.70
2018-05-11T17:18:09.187Z,49.40
2018-05-11T17:20:38.228Z,49.40
2018-05-11T17:23:06.488Z,49.40
2018-05-11T17:25:34.751Z,49.00
2018-05-11T17:28:02.972Z,49.40
2018-05-11T17:30:31.241Z,49.70
2018-05-11T17:32:59.488Z,49.30
2018-05-11T17:35:27.769Z,49.40
2018-05-11T17:37:56.017Z,49.60
2018-05-11T17:40:24.269Z,49.50
2018-05-11T17:42:52.491Z,49.60
2018-05-11T17:45:20.772Z,50.00
2018-05-11T17:47:49.019Z,50.30
2018-05-11T17:50:17.299Z,50.10
2018-05-11T17:52:45.589Z,50.10
2018-05-11T17:55:13.852Z,50.60
2018-05-11T17:57:42.116Z,50.60
2018-05-11T18:00:11.128Z,50.70
2018-05-11T18:02:39.359Z,50.70
2018-05-11T18:05:07.626Z,50.50
2018-05-11T18:07:35.874Z,50.60
2018-05-11T18:10:04.943Z,50.90
2018-05-11T18:12:33.182Z,50.90
2018-05-11T18:15:01.464Z,51.10
2018-05-11T18:17:29.741Z,51.20
2018-05-11T18:19:58.022Z,52.00
2018-05-11T18:22:26.298Z,51.90
2018-05-11T18:24:54.549Z,51.90
2018-05-11T18:27:23.578Z,52.20
2018-05-11T18:29:51.875Z,52.10
2018-05-11T18:32:20.924Z,52.50
2018-05-11T18:34:50.538Z,52.80
2018-05-11T18:37:18.855Z,52.70
2018-05-11T18:39:47.129Z,53.00
2018-05-11T18:42:15.404Z,52.80
2018-05-11T18:44:43.666Z,53.10
2018-05-11T18:47:12.780Z,53.90
2018-05-11T18:49:41.020Z,53.80
2018-05-11T18:52:09.296Z,53.70
2018-05-11T18:54:37.844Z,54.20
2018-05-11T18:57:06.600Z,54.40
2018-05-11T18:59:35.684Z,54.30
2018-05-11T19:02:03.985Z,54.30
2018-05-11T19:04:32.972Z,54.40
2018-05-11T19:07:02.028Z,54.50
2018-05-11T19:09:30.297Z,54.40
2018-05-11T19:11:58.581Z,54.80
2018-05-11T19:14:26.811Z,55.20
2018-05-11T19:16:59.147Z,55.10
2018-05-11T19:19:28.072Z,54.90
2018-05-11T19:21:57.085Z,55.00
2018-05-11T19:24:26.125Z,55.30
2018-05-11T19:26:54.369Z,55.10
2018-05-11T19:29:23.983Z,55.00
2018-05-11T19:31:53.488Z,54.40
2018-05-11T19:34:23.122Z,54.60
2018-05-11T19:36:52.153Z,55.00
2018-05-11T19:39:20.393Z,55.00
2018-05-11T19:41:49.411Z,55.00
2018-05-11T19:44:17.678Z,54.90
2018-05-11T19:46:46.664Z,54.90
2018-05-11T19:49:15.687Z,55.00
2018-05-11T19:51:43.977Z,55.00
2018-05-11T19:54:12.216Z,54.70
2018-05-11T19:56:40.539Z,55.20
2018-05-11T19:59:08.818Z,54.90
2018-05-11T20:01:37.094Z,55.00
2018-05-11T20:04:05.338Z,55.20
2018-05-11T20:06:33.568Z,55.40
2018-05-11T20:09:01.798Z,55.30
2018-05-11T20:11:30.061Z,55.20
2018-05-11T20:13:58.298Z,55.40
2018-05-11T20:16:26.539Z,55.50
2018-05-11T20:18:54.793Z,55.90
2018-05-11T20:21:23.042Z,55.30
2018-05-11T20:23:51.283Z,55.80
2018-05-11T20:26:20.135Z,55.70
2018-05-11T20:28:49.003Z,55.20
2018-05-11T20:31:18.043Z,55.20
2018-05-11T20:33:46.856Z,55.10
2018-05-11T20:36:15.125Z,55.00
2018-05-11T20:38:43.393Z,55.00
2018-05-11T20:41:11.632Z,55.20
2018-05-11T20:43:39.909Z,55.60
2018-05-11T20:46:08.946Z,55.50
2018-05-11T20:48:37.212Z,55.50
2018-05-11T20:51:05.524Z,55.60
2018-05-11T20:53:34.278Z,55.60
2018-05-11T20:56:02.590Z,55.80
2018-05-11T20:58:30.863Z,56.10
2018-05-11T21:01:00.816Z,56.00
2018-05-11T21:03:30.745Z,56.30
2018-05-11T21:05:58.989Z,56.70
2018-05-11T21:08:27.842Z,56.70
2018-05-11T21:10:56.860Z,57.00
2018-05-11T21:13:25.382Z,56.90
2018-05-11T21:15:53.553Z,56.80
2018-05-11T21:18:21.815Z,56.80
2018-05-11T21:20:50.105Z,57.30
2018-05-11T21:23:18.387Z,57.20
2018-05-11T21:25:47.155Z,57.40
2018-05-11T21:28:15.450Z,57.40
2018-05-11T21:30:43.696Z,57.80
2018-05-11T21:33:12.772Z,58.30
2018-05-11T21:35:41.007Z,58.30
2018-05-11T21:38:09.302Z,58.50
2018-05-11T21:40:37.541Z,58.80
2018-05-11T21:43:06.574Z,59.40
2018-05-11T21:45:34.808Z,59.30
2018-05-11T21:48:03.055Z,59.60
2018-05-11T21:50:31.301Z,59.20
2018-05-11T21:52:59.614Z,60.00
2018-05-11T21:55:27.856Z,59.20
2018-05-11T21:57:56.887Z,59.60
2018-05-11T22:00:25.129Z,59.60
2018-05-11T22:02:54.195Z,59.60
2018-05-11T22:05:23.196Z,59.80
2018-05-11T22:07:51.449Z,59.80
2018-05-11T22:10:19.690Z,60.00
2018-05-11T22:12:48.816Z,60.20
2018-05-11T22:15:17.280Z,60.20
2018-05-11T22:17:46.293Z,60.20
2018-05-11T22:20:14.524Z,60.20
2018-05-11T22:22:42.798Z,60.20
2018-05-11T22:25:11.047Z,60.30
2018-05-11T22:27:39.904Z,60.60
2018-05-11T22:30:08.154Z,61.70
2018-05-11T22:32:37.951Z,61.20
2018-05-11T22:35:06.217Z,61.20
2018-05-11T22:37:34.436Z,62.20
2018-05-11T22:40:02.679Z,62.00
2018-05-11T22:42:30.935Z,61.90
2018-05-11T22:44:59.174Z,61.70
2018-05-11T22:47:27.455Z,61.70
2018-05-11T22:49:55.712Z,62.00
2018-05-11T22:52:24.024Z,62.50
2018-05-11T22:54:52.328Z,63.00
2018-05-11T22:57:20.590Z,63.00
2018-05-11T22:59:48.843Z,63.50
2018-05-11T23:02:17.056Z,63.70
2018-05-11T23:04:45.317Z,64.30
2018-05-11T23:07:13.763Z,64.40
2018-05-11T23:09:41.986Z,64.30
2018-05-11T23:12:10.837Z,64.00
2018-05-11T23:14:39.856Z,63.30
2018-05-11T23:17:08.076Z,63.20
2018-05-11T23:19:36.366Z,63.40
2018-05-11T23:22:05.368Z,63.80
2018-05-11T23:24:33.619Z,64.00
2018-05-11T23:27:01.892Z,63.80
2018-05-11T23:29:30.743Z,64.30
2018-05-11T23:31:59.742Z,64.40
2018-05-11T23:34:29.736Z,64.60
2018-05-11T23:36:59.416Z,64.60
2018-05-11T23:39:27.684Z,64.40
2018-05-11T23:41:56.639Z,64.80
2018-05-11T23:44:25.705Z,64.90
2018-05-11T23:46:54.227Z,64.80
2018-05-11T23:49:22.488Z,65.00
2018-05-11T23:51:50.749Z,65.40
2018-05-11T23:54:19.076Z,65.70
2018-05-11T23:56:48.061Z,64.90
2018-05-11T23:59:16.352Z,65.50
